Terminal Aerodrome Forecast
Issued by NWS Twin Cities, MN

Home | Current Version | Previous Version | Graphics & Text | Print | Product List | Glossary On
Versions: 1 2 3 4 5 6 7 8 9 10 11 12 13 14 15 16 17 18
011
FTUS43 KMPX 191720
TAFEAU
TAF
KEAU 191720Z 1918/2018 17008KT P6SM BKN200
     FM200100 22007KT P6SM BKN200
     FM200500 25004KT P6SM BKN150
     FM200900 VRB02KT P6SM SCT100 BKN200=

USA.gov is the U.S. government's official web portal to all federal, state and local government web resources and services.